sensor_id;sensor_type;location;lat;lon;timestamp;P1;durP1;ratioP1;P2;durP2;ratioP2
16075;SDS011;8142;48.242;11.644;2023-04-15T00:00:09;6.27;;;4.03;;
16075;SDS011;8142;48.242;11.644;2023-04-15T00:02:36;8.40;;;3.73;;
16075;SDS011;8142;48.242;11.644;2023-04-15T00:05:03;7.73;;;3.43;;
16075;SDS011;8142;48.242;11.644;2023-04-15T00:07:30;8.33;;;3.57;;
16075;SDS011;8142;48.242;11.644;2023-04-15T00:09:56;6.20;;;3.30;;
16075;SDS011;8142;48.242;11.644;2023-04-15T00:12:23;6.63;;;3.30;;
16075;SDS011;8142;48.242;11.644;2023-04-15T00:14:49;6.33;;;3.57;;
16075;SDS011;8142;48.242;11.644;2023-04-15T00:17:15;6.57;;;3.40;;
16075;SDS011;8142;48.242;11.644;2023-04-15T00:19:41;6.73;;;3.20;;
16075;SDS011;8142;48.242;11.644;2023-04-15T00:22:09;6.30;;;3.60;;
16075;SDS011;8142;48.242;11.644;2023-04-15T00:24:34;9.10;;;4.93;;
16075;SDS011;8142;48.242;11.644;2023-04-15T00:27:01;7.50;;;4.33;;
16075;SDS011;8142;48.242;11.644;2023-04-15T00:29:27;5.73;;;3.80;;
16075;SDS011;8142;48.242;11.644;2023-04-15T00:31:54;4.67;;;3.47;;
16075;SDS011;8142;48.242;11.644;2023-04-15T00:34:23;7.33;;;3.77;;
16075;SDS011;8142;48.242;11.644;2023-04-15T00:36:49;5.47;;;3.67;;
16075;SDS011;8142;48.242;11.644;2023-04-15T00:39:16;5.50;;;3.60;;
16075;SDS011;8142;48.242;11.644;2023-04-15T00:41:43;5.80;;;3.63;;
16075;SDS011;8142;48.242;11.644;2023-04-15T00:44:09;7.40;;;3.83;;
16075;SDS011;8142;48.242;11.644;2023-04-15T00:46:36;6.20;;;4.30;;
16075;SDS011;8142;48.242;11.644;2023-04-15T00:49:03;4.87;;;3.50;;
16075;SDS011;8142;48.242;11.644;2023-04-15T00:51:31;5.77;;;3.80;;
16075;SDS011;8142;48.242;11.644;2023-04-15T00:54:00;9.13;;;5.30;;
16075;SDS011;8142;48.242;11.644;2023-04-15T00:56:30;9.13;;;5.23;;
16075;SDS011;8142;48.242;11.644;2023-04-15T00:58:59;5.13;;;3.87;;
16075;SDS011;8142;48.242;11.644;2023-04-15T01:01:26;5.80;;;4.20;;
16075;SDS011;8142;48.242;11.644;2023-04-15T01:03:54;5.57;;;4.00;;
16075;SDS011;8142;48.242;11.644;2023-04-15T01:06:22;8.83;;;3.83;;
16075;SDS011;8142;48.242;11.644;2023-04-15T01:08:48;5.87;;;3.70;;
16075;SDS011;8142;48.242;11.644;2023-04-15T01:11:15;6.40;;;4.20;;
16075;SDS011;8142;48.242;11.644;2023-04-15T01:13:42;5.67;;;3.70;;
16075;SDS011;8142;48.242;11.644;2023-04-15T01:16:08;5.93;;;3.90;;
16075;SDS011;8142;48.242;11.644;2023-04-15T01:18:34;7.37;;;4.03;;
16075;SDS011;8142;48.242;11.644;2023-04-15T01:21:02;7.10;;;3.57;;
16075;SDS011;8142;48.242;11.644;2023-04-15T01:23:29;13.47;;;5.80;;
16075;SDS011;8142;48.242;11.644;2023-04-15T01:25:56;10.57;;;5.47;;
16075;SDS011;8142;48.242;11.644;2023-04-15T01:28:23;8.90;;;4.80;;
16075;SDS011;8142;48.242;11.644;2023-04-15T01:30:50;7.07;;;4.30;;
16075;SDS011;8142;48.242;11.644;2023-04-15T01:33:33;6.43;;;4.00;;
16075;SDS011;8142;48.242;11.644;2023-04-15T01:35:59;7.77;;;4.23;;
16075;SDS011;8142;48.242;11.644;2023-04-15T01:38:26;8.17;;;4.37;;
16075;SDS011;8142;48.242;11.644;2023-04-15T01:40:52;7.33;;;4.27;;
16075;SDS011;8142;48.242;11.644;2023-04-15T01:43:18;8.40;;;4.50;;
16075;SDS011;8142;48.242;11.644;2023-04-15T01:45:44;6.53;;;4.33;;
16075;SDS011;8142;48.242;11.644;2023-04-15T01:48:10;5.83;;;4.23;;
16075;SDS011;8142;48.242;11.644;2023-04-15T01:50:36;6.33;;;4.10;;
16075;SDS011;8142;48.242;11.644;2023-04-15T01:53:02;9.97;;;5.17;;
16075;SDS011;8142;48.242;11.644;2023-04-15T01:55:29;11.07;;;6.93;;
16075;SDS011;8142;48.242;11.644;2023-04-15T01:57:55;9.07;;;5.73;;
16075;SDS011;8142;48.242;11.644;2023-04-15T02:00:21;8.77;;;5.30;;
16075;SDS011;8142;48.242;11.644;2023-04-15T02:02:47;8.73;;;5.00;;
16075;SDS011;8142;48.242;11.644;2023-04-15T02:05:14;7.13;;;4.53;;
16075;SDS011;8142;48.242;11.644;2023-04-15T02:07:43;8.13;;;5.10;;
16075;SDS011;8142;48.242;11.644;2023-04-15T02:10:10;7.30;;;5.13;;
16075;SDS011;8142;48.242;11.644;2023-04-15T02:12:40;6.27;;;4.63;;
16075;SDS011;8142;48.242;11.644;2023-04-15T02:15:06;7.30;;;4.67;;
16075;SDS011;8142;48.242;11.644;2023-04-15T02:17:33;7.77;;;5.00;;
16075;SDS011;8142;48.242;11.644;2023-04-15T02:20:00;5.30;;;4.33;;
16075;SDS011;8142;48.242;11.644;2023-04-15T02:22:26;8.33;;;5.57;;
16075;SDS011;8142;48.242;11.644;2023-04-15T02:24:52;12.13;;;7.97;;
16075;SDS011;8142;48.242;11.644;2023-04-15T02:27:18;11.40;;;7.03;;
16075;SDS011;8142;48.242;11.644;2023-04-15T02:29:44;8.83;;;6.03;;
16075;SDS011;8142;48.242;11.644;2023-04-15T02:32:13;8.87;;;5.57;;
16075;SDS011;8142;48.242;11.644;2023-04-15T02:34:39;9.83;;;5.63;;
16075;SDS011;8142;48.242;11.644;2023-04-15T02:37:07;8.13;;;5.13;;
16075;SDS011;8142;48.242;11.644;2023-04-15T02:39:34;8.00;;;5.40;;
16075;SDS011;8142;48.242;11.644;2023-04-15T02:42:00;8.23;;;5.10;;
16075;SDS011;8142;48.242;11.644;2023-04-15T02:44:27;7.17;;;5.03;;
16075;SDS011;8142;48.242;11.644;2023-04-15T02:46:53;7.53;;;5.53;;
16075;SDS011;8142;48.242;11.644;2023-04-15T02:49:19;7.57;;;5.50;;
16075;SDS011;8142;48.242;11.644;2023-04-15T02:51:46;6.23;;;4.77;;
16075;SDS011;8142;48.242;11.644;2023-04-15T02:54:18;12.17;;;6.70;;
16075;SDS011;8142;48.242;11.644;2023-04-15T02:56:45;7.47;;;5.93;;
16075;SDS011;8142;48.242;11.644;2023-04-15T02:59:11;6.97;;;5.40;;
16075;SDS011;8142;48.242;11.644;2023-04-15T03:01:37;7.73;;;5.30;;
16075;SDS011;8142;48.242;11.644;2023-04-15T03:04:03;7.37;;;5.23;;
16075;SDS011;8142;48.242;11.644;2023-04-15T03:06:29;9.47;;;5.50;;
16075;SDS011;8142;48.242;11.644;2023-04-15T03:08:55;8.13;;;5.50;;
16075;SDS011;8142;48.242;11.644;2023-04-15T03:11:21;8.53;;;5.50;;
16075;SDS011;8142;48.242;11.644;2023-04-15T03:13:47;8.20;;;5.10;;
16075;SDS011;8142;48.242;11.644;2023-04-15T03:16:13;8.27;;;4.90;;
16075;SDS011;8142;48.242;11.644;2023-04-15T03:18:39;8.90;;;5.37;;
16075;SDS011;8142;48.242;11.644;2023-04-15T03:21:05;8.93;;;5.07;;
16075;SDS011;8142;48.242;11.644;2023-04-15T03:23:30;9.83;;;6.47;;
16075;SDS011;8142;48.242;11.644;2023-04-15T03:25:56;11.43;;;7.60;;
16075;SDS011;8142;48.242;11.644;2023-04-15T03:28:25;9.10;;;6.23;;
16075;SDS011;8142;48.242;11.644;2023-04-15T03:30:51;8.97;;;5.17;;
16075;SDS011;8142;48.242;11.644;2023-04-15T03:33:17;9.67;;;5.13;;
16075;SDS011;8142;48.242;11.644;2023-04-15T03:35:43;8.00;;;5.17;;
16075;SDS011;8142;48.242;11.644;2023-04-15T03:38:09;7.73;;;5.00;;
16075;SDS011;8142;48.242;11.644;2023-04-15T03:40:34;8.97;;;5.30;;
16075;SDS011;8142;48.242;11.644;2023-04-15T03:43:01;7.30;;;5.33;;
16075;SDS011;8142;48.242;11.644;2023-04-15T03:45:26;8.90;;;5.80;;
16075;SDS011;8142;48.242;11.644;2023-04-15T03:47:52;6.33;;;5.20;;
16075;SDS011;8142;48.242;11.644;2023-04-15T03:50:18;6.87;;;4.63;;
16075;SDS011;8142;48.242;11.644;2023-04-15T03:52:44;8.03;;;5.13;;
16075;SDS011;8142;48.242;11.644;2023-04-15T03:55:10;9.27;;;5.90;;
16075;SDS011;8142;48.242;11.644;2023-04-15T03:57:36;9.07;;;5.80;;
16075;SDS011;8142;48.242;11.644;2023-04-15T04:00:04;8.27;;;5.40;;
16075;SDS011;8142;48.242;11.644;2023-04-15T04:02:30;7.40;;;5.00;;
16075;SDS011;8142;48.242;11.644;2023-04-15T04:04:56;8.60;;;5.17;;
16075;SDS011;8142;48.242;11.644;2023-04-15T04:07:22;8.50;;;5.30;;
16075;SDS011;8142;48.242;11.644;2023-04-15T04:09:48;6.63;;;5.20;;
16075;SDS011;8142;48.242;11.644;2023-04-15T04:12:14;6.90;;;4.97;;
16075;SDS011;8142;48.242;11.644;2023-04-15T04:14:40;8.20;;;5.03;;
16075;SDS011;8142;48.242;11.644;2023-04-15T04:17:06;6.57;;;4.90;;
16075;SDS011;8142;48.242;11.644;2023-04-15T04:19:32;6.60;;;4.70;;
16075;SDS011;8142;48.242;11.644;2023-04-15T04:21:59;5.97;;;4.83;;
16075;SDS011;8142;48.242;11.644;2023-04-15T04:24:25;7.10;;;5.00;;
16075;SDS011;8142;48.242;11.644;2023-04-15T04:26:51;7.77;;;5.20;;
16075;SDS011;8142;48.242;11.644;2023-04-15T04:29:17;9.40;;;5.30;;
16075;SDS011;8142;48.242;11.644;2023-04-15T04:31:43;9.17;;;5.63;;
16075;SDS011;8142;48.242;11.644;2023-04-15T04:34:08;7.17;;;4.43;;
16075;SDS011;8142;48.242;11.644;2023-04-15T04:36:34;7.50;;;4.90;;
16075;SDS011;8142;48.242;11.644;2023-04-15T04:39:00;8.13;;;5.70;;
16075;SDS011;8142;48.242;11.644;2023-04-15T04:41:26;9.03;;;5.57;;
16075;SDS011;8142;48.242;11.644;2023-04-15T04:43:52;7.80;;;5.23;;
16075;SDS011;8142;48.242;11.644;2023-04-15T04:46:18;9.10;;;5.43;;
16075;SDS011;8142;48.242;11.644;2023-04-15T04:48:44;9.13;;;4.63;;
16075;SDS011;8142;48.242;11.644;2023-04-15T04:51:10;8.00;;;5.20;;
16075;SDS011;8142;48.242;11.644;2023-04-15T04:53:36;9.33;;;5.50;;
16075;SDS011;8142;48.242;11.644;2023-04-15T04:56:02;9.70;;;5.37;;
16075;SDS011;8142;48.242;11.644;2023-04-15T04:58:28;8.67;;;5.30;;
16075;SDS011;8142;48.242;11.644;2023-04-15T05:00:54;9.00;;;5.00;;
16075;SDS011;8142;48.242;11.644;2023-04-15T05:03:20;8.03;;;5.30;;
16075;SDS011;8142;48.242;11.644;2023-04-15T05:05:46;7.50;;;4.57;;
16075;SDS011;8142;48.242;11.644;2023-04-15T05:08:13;6.40;;;4.73;;
16075;SDS011;8142;48.242;11.644;2023-04-15T05:10:40;7.20;;;4.50;;
16075;SDS011;8142;48.242;11.644;2023-04-15T05:13:06;7.63;;;4.60;;
16075;SDS011;8142;48.242;11.644;2023-04-15T05:15:32;7.87;;;4.63;;
16075;SDS011;8142;48.242;11.644;2023-04-15T05:17:59;9.30;;;4.90;;
16075;SDS011;8142;48.242;11.644;2023-04-15T05:20:25;7.93;;;4.50;;
16075;SDS011;8142;48.242;11.644;2023-04-15T05:22:50;7.40;;;4.20;;
16075;SDS011;8142;48.242;11.644;2023-04-15T05:25:16;7.40;;;4.33;;
16075;SDS011;8142;48.242;11.644;2023-04-15T05:27:42;7.87;;;4.50;;
16075;SDS011;8142;48.242;11.644;2023-04-15T05:30:08;9.57;;;4.30;;
16075;SDS011;8142;48.242;11.644;2023-04-15T05:32:34;5.90;;;3.77;;
16075;SDS011;8142;48.242;11.644;2023-04-15T05:35:00;6.90;;;4.03;;
16075;SDS011;8142;48.242;11.644;2023-04-15T05:37:27;8.40;;;3.77;;
16075;SDS011;8142;48.242;11.644;2023-04-15T05:39:53;5.70;;;3.73;;
16075;SDS011;8142;48.242;11.644;2023-04-15T05:42:19;6.77;;;4.00;;
16075;SDS011;8142;48.242;11.644;2023-04-15T05:44:45;10.30;;;4.10;;
16075;SDS011;8142;48.242;11.644;2023-04-15T05:47:11;8.17;;;4.10;;
16075;SDS011;8142;48.242;11.644;2023-04-15T05:49:36;9.40;;;3.70;;
16075;SDS011;8142;48.242;11.644;2023-04-15T05:52:02;7.57;;;3.83;;
16075;SDS011;8142;48.242;11.644;2023-04-15T05:54:28;4.93;;;3.43;;
16075;SDS011;8142;48.242;11.644;2023-04-15T05:56:54;10.63;;;3.97;;
16075;SDS011;8142;48.242;11.644;2023-04-15T05:59:21;5.90;;;3.57;;
16075;SDS011;8142;48.242;11.644;2023-04-15T06:01:47;8.67;;;3.70;;
16075;SDS011;8142;48.242;11.644;2023-04-15T06:04:13;6.63;;;3.60;;
16075;SDS011;8142;48.242;11.644;2023-04-15T06:06:39;5.23;;;3.50;;
16075;SDS011;8142;48.242;11.644;2023-04-15T06:09:06;6.97;;;3.13;;
16075;SDS011;8142;48.242;11.644;2023-04-15T06:11:32;5.97;;;3.30;;
16075;SDS011;8142;48.242;11.644;2023-04-15T06:13:58;7.07;;;3.60;;
16075;SDS011;8142;48.242;11.644;2023-04-15T06:16:23;5.90;;;3.33;;
16075;SDS011;8142;48.242;11.644;2023-04-15T06:18:49;7.20;;;3.67;;
16075;SDS011;8142;48.242;11.644;2023-04-15T06:21:15;4.43;;;3.20;;
16075;SDS011;8142;48.242;11.644;2023-04-15T06:23:41;6.20;;;3.30;;
16075;SDS011;8142;48.242;11.644;2023-04-15T06:26:07;5.90;;;3.27;;
16075;SDS011;8142;48.242;11.644;2023-04-15T06:28:33;8.27;;;3.20;;
16075;SDS011;8142;48.242;11.644;2023-04-15T06:30:59;7.27;;;3.00;;
16075;SDS011;8142;48.242;11.644;2023-04-15T06:33:26;8.23;;;3.13;;
16075;SDS011;8142;48.242;11.644;2023-04-15T06:35:52;5.23;;;2.83;;
16075;SDS011;8142;48.242;11.644;2023-04-15T06:38:18;5.80;;;2.83;;
16075;SDS011;8142;48.242;11.644;2023-04-15T06:40:44;6.20;;;3.00;;
16075;SDS011;8142;48.242;11.644;2023-04-15T06:43:10;4.37;;;2.97;;
16075;SDS011;8142;48.242;11.644;2023-04-15T06:45:36;5.07;;;2.83;;
16075;SDS011;8142;48.242;11.644;2023-04-15T06:48:02;6.20;;;2.60;;
16075;SDS011;8142;48.242;11.644;2023-04-15T06:50:28;7.13;;;2.90;;
16075;SDS011;8142;48.242;11.644;2023-04-15T06:52:54;6.50;;;2.63;;
16075;SDS011;8142;48.242;11.644;2023-04-15T06:55:20;7.50;;;3.00;;
16075;SDS011;8142;48.242;11.644;2023-04-15T06:57:46;5.40;;;2.40;;
16075;SDS011;8142;48.242;11.644;2023-04-15T07:00:12;5.47;;;2.80;;
16075;SDS011;8142;48.242;11.644;2023-04-15T07:02:38;6.53;;;2.87;;
16075;SDS011;8142;48.242;11.644;2023-04-15T07:05:05;5.13;;;2.70;;
16075;SDS011;8142;48.242;11.644;2023-04-15T07:07:31;6.30;;;2.77;;
16075;SDS011;8142;48.242;11.644;2023-04-15T07:09:57;4.80;;;2.63;;
16075;SDS011;8142;48.242;11.644;2023-04-15T07:12:23;4.73;;;2.20;;
16075;SDS011;8142;48.242;11.644;2023-04-15T07:14:49;5.57;;;2.70;;
16075;SDS011;8142;48.242;11.644;2023-04-15T07:17:15;5.23;;;2.50;;
16075;SDS011;8142;48.242;11.644;2023-04-15T07:19:40;7.60;;;2.60;;
16075;SDS011;8142;48.242;11.644;2023-04-15T07:22:06;4.77;;;2.20;;
16075;SDS011;8142;48.242;11.644;2023-04-15T07:24:32;5.13;;;2.60;;
16075;SDS011;8142;48.242;11.644;2023-04-15T07:26:58;4.53;;;2.33;;
16075;SDS011;8142;48.242;11.644;2023-04-15T07:29:24;5.63;;;2.60;;
16075;SDS011;8142;48.242;11.644;2023-04-15T07:31:51;5.90;;;2.50;;
16075;SDS011;8142;48.242;11.644;2023-04-15T07:34:18;4.90;;;2.20;;
16075;SDS011;8142;48.242;11.644;2023-04-15T07:36:45;4.57;;;2.60;;
16075;SDS011;8142;48.242;11.644;2023-04-15T07:39:14;3.47;;;2.20;;
16075;SDS011;8142;48.242;11.644;2023-04-15T07:41:40;5.43;;;2.60;;
16075;SDS011;8142;48.242;11.644;2023-04-15T07:44:06;9.27;;;2.50;;
16075;SDS011;8142;48.242;11.644;2023-04-15T07:46:32;6.77;;;2.57;;
16075;SDS011;8142;48.242;11.644;2023-04-15T07:48:58;6.43;;;3.03;;
16075;SDS011;8142;48.242;11.644;2023-04-15T07:51:24;4.67;;;2.37;;
16075;SDS011;8142;48.242;11.644;2023-04-15T07:53:50;7.17;;;2.80;;
16075;SDS011;8142;48.242;11.644;2023-04-15T07:56:17;5.40;;;2.70;;
16075;SDS011;8142;48.242;11.644;2023-04-15T07:58:42;5.47;;;2.70;;
16075;SDS011;8142;48.242;11.644;2023-04-15T08:01:08;5.07;;;2.70;;
16075;SDS011;8142;48.242;11.644;2023-04-15T08:03:34;5.97;;;2.70;;
16075;SDS011;8142;48.242;11.644;2023-04-15T08:06:00;7.03;;;2.60;;
16075;SDS011;8142;48.242;11.644;2023-04-15T08:08:26;6.50;;;2.73;;
16075;SDS011;8142;48.242;11.644;2023-04-15T08:10:52;11.33;;;3.10;;
16075;SDS011;8142;48.242;11.644;2023-04-15T08:13:18;4.60;;;2.47;;
16075;SDS011;8142;48.242;11.644;2023-04-15T08:15:45;7.77;;;2.60;;
16075;SDS011;8142;48.242;11.644;2023-04-15T08:18:11;4.77;;;2.47;;
16075;SDS011;8142;48.242;11.644;2023-04-15T08:20:36;4.33;;;2.40;;
16075;SDS011;8142;48.242;11.644;2023-04-15T08:23:02;4.90;;;2.60;;
16075;SDS011;8142;48.242;11.644;2023-04-15T08:25:29;5.27;;;2.60;;
16075;SDS011;8142;48.242;11.644;2023-04-15T08:27:55;5.37;;;2.77;;
16075;SDS011;8142;48.242;11.644;2023-04-15T08:30:21;4.23;;;2.90;;
16075;SDS011;8142;48.242;11.644;2023-04-15T08:32:49;3.13;;;2.40;;
16075;SDS011;8142;48.242;11.644;2023-04-15T08:35:15;5.03;;;2.63;;
16075;SDS011;8142;48.242;11.644;2023-04-15T08:37:41;7.73;;;3.00;;
16075;SDS011;8142;48.242;11.644;2023-04-15T08:40:07;4.13;;;2.50;;
16075;SDS011;8142;48.242;11.644;2023-04-15T08:42:36;3.07;;;2.60;;
16075;SDS011;8142;48.242;11.644;2023-04-15T08:45:06;7.30;;;3.00;;
16075;SDS011;8142;48.242;11.644;2023-04-15T08:47:35;3.93;;;2.50;;
16075;SDS011;8142;48.242;11.644;2023-04-15T08:50:07;3.33;;;2.50;;
16075;SDS011;8142;48.242;11.644;2023-04-15T08:52:34;4.27;;;2.50;;
16075;SDS011;8142;48.242;11.644;2023-04-15T08:55:01;4.07;;;2.47;;
16075;SDS011;8142;48.242;11.644;2023-04-15T08:57:28;4.60;;;2.80;;
16075;SDS011;8142;48.242;11.644;2023-04-15T08:59:57;6.90;;;3.17;;
16075;SDS011;8142;48.242;11.644;2023-04-15T09:02:23;9.53;;;3.27;;
16075;SDS011;8142;48.242;11.644;2023-04-15T09:04:51;6.30;;;2.90;;
16075;SDS011;8142;48.242;11.644;2023-04-15T09:07:17;4.87;;;2.97;;
16075;SDS011;8142;48.242;11.644;2023-04-15T09:09:43;5.70;;;2.93;;
16075;SDS011;8142;48.242;11.644;2023-04-15T09:12:10;4.27;;;2.60;;
16075;SDS011;8142;48.242;11.644;2023-04-15T09:14:38;7.10;;;3.40;;
16075;SDS011;8142;48.242;11.644;2023-04-15T09:17:05;8.70;;;3.43;;
16075;SDS011;8142;48.242;11.644;2023-04-15T09:19:34;6.13;;;3.20;;
16075;SDS011;8142;48.242;11.644;2023-04-15T09:22:00;4.13;;;2.83;;
16075;SDS011;8142;48.242;11.644;2023-04-15T09:24:37;12.10;;;3.83;;
16075;SDS011;8142;48.242;11.644;2023-04-15T09:27:05;4.10;;;3.00;;
16075;SDS011;8142;48.242;11.644;2023-04-15T09:29:31;6.63;;;3.50;;
16075;SDS011;8142;48.242;11.644;2023-04-15T09:32:15;6.70;;;3.40;;
16075;SDS011;8142;48.242;11.644;2023-04-15T09:34:42;6.00;;;3.13;;
16075;SDS011;8142;48.242;11.644;2023-04-15T09:37:08;5.27;;;3.20;;
16075;SDS011;8142;48.242;11.644;2023-04-15T09:39:45;4.40;;;3.57;;
16075;SDS011;8142;48.242;11.644;2023-04-15T09:42:15;5.50;;;3.70;;
16075;SDS011;8142;48.242;11.644;2023-04-15T09:44:51;4.77;;;3.43;;
16075;SDS011;8142;48.242;11.644;2023-04-15T09:47:27;3.97;;;3.50;;
16075;SDS011;8142;48.242;11.644;2023-04-15T09:49:54;9.17;;;4.10;;
16075;SDS011;8142;48.242;11.644;2023-04-15T09:52:21;7.33;;;3.23;;
16075;SDS011;8142;48.242;11.644;2023-04-15T09:54:47;6.23;;;3.50;;
16075;SDS011;8142;48.242;11.644;2023-04-15T09:57:17;10.40;;;3.73;;
16075;SDS011;8142;48.242;11.644;2023-04-15T09:59:43;4.90;;;3.30;;
16075;SDS011;8142;48.242;11.644;2023-04-15T10:02:09;5.90;;;3.53;;
16075;SDS011;8142;48.242;11.644;2023-04-15T10:04:38;7.53;;;3.63;;
16075;SDS011;8142;48.242;11.644;2023-04-15T10:07:06;6.07;;;3.73;;
16075;SDS011;8142;48.242;11.644;2023-04-15T10:09:40;5.67;;;3.50;;
16075;SDS011;8142;48.242;11.644;2023-04-15T10:12:07;5.60;;;3.63;;
16075;SDS011;8142;48.242;11.644;2023-04-15T10:14:34;7.70;;;4.23;;
16075;SDS011;8142;48.242;11.644;2023-04-15T10:17:03;7.40;;;3.90;;
16075;SDS011;8142;48.242;11.644;2023-04-15T10:19:30;6.73;;;4.40;;
16075;SDS011;8142;48.242;11.644;2023-04-15T10:21:58;7.07;;;4.10;;
16075;SDS011;8142;48.242;11.644;2023-04-15T10:24:24;9.13;;;4.20;;
16075;SDS011;8142;48.242;11.644;2023-04-15T10:26:52;5.67;;;3.90;;
16075;SDS011;8142;48.242;11.644;2023-04-15T10:29:18;6.53;;;3.90;;
16075;SDS011;8142;48.242;11.644;2023-04-15T10:31:44;7.43;;;4.50;;
16075;SDS011;8142;48.242;11.644;2023-04-15T10:34:11;7.30;;;4.83;;
16075;SDS011;8142;48.242;11.644;2023-04-15T10:36:38;7.63;;;4.30;;
16075;SDS011;8142;48.242;11.644;2023-04-15T10:39:37;9.67;;;4.63;;
16075;SDS011;8142;48.242;11.644;2023-04-15T10:42:11;6.60;;;4.30;;
16075;SDS011;8142;48.242;11.644;2023-04-15T10:44:42;6.17;;;4.43;;
16075;SDS011;8142;48.242;11.644;2023-04-15T10:47:20;7.70;;;4.50;;
16075;SDS011;8142;48.242;11.644;2023-04-15T10:49:50;8.00;;;4.60;;
16075;SDS011;8142;48.242;11.644;2023-04-15T10:52:23;7.33;;;4.53;;
16075;SDS011;8142;48.242;11.644;2023-04-15T10:55:02;5.40;;;3.87;;
16075;SDS011;8142;48.242;11.644;2023-04-15T10:57:36;5.23;;;3.57;;
16075;SDS011;8142;48.242;11.644;2023-04-15T11:02:46;6.50;;;3.90;;
16075;SDS011;8142;48.242;11.644;2023-04-15T11:08:08;6.13;;;4.20;;
16075;SDS011;8142;48.242;11.644;2023-04-15T11:18:12;6.03;;;4.50;;
16075;SDS011;8142;48.242;11.644;2023-04-15T11:20:46;8.87;;;4.73;;
16075;SDS011;8142;48.242;11.644;2023-04-15T11:23:20;6.43;;;4.63;;
16075;SDS011;8142;48.242;11.644;2023-04-15T11:25:55;8.93;;;5.07;;
16075;SDS011;8142;48.242;11.644;2023-04-15T11:28:26;8.57;;;4.67;;
16075;SDS011;8142;48.242;11.644;2023-04-15T11:30:53;8.37;;;4.67;;
16075;SDS011;8142;48.242;11.644;2023-04-15T11:33:20;6.17;;;4.00;;
16075;SDS011;8142;48.242;11.644;2023-04-15T11:35:47;8.47;;;4.43;;
16075;SDS011;8142;48.242;11.644;2023-04-15T11:38:13;7.67;;;4.40;;
16075;SDS011;8142;48.242;11.644;2023-04-15T11:40:42;6.50;;;4.20;;
16075;SDS011;8142;48.242;11.644;2023-04-15T11:45:50;5.97;;;4.20;;
16075;SDS011;8142;48.242;11.644;2023-04-15T11:48:17;7.83;;;5.27;;
16075;SDS011;8142;48.242;11.644;2023-04-15T11:50:44;8.33;;;4.73;;
16075;SDS011;8142;48.242;11.644;2023-04-15T11:53:10;6.73;;;4.80;;
16075;SDS011;8142;48.242;11.644;2023-04-15T11:55:44;9.53;;;4.90;;
16075;SDS011;8142;48.242;11.644;2023-04-15T11:58:18;7.83;;;4.80;;
16075;SDS011;8142;48.242;11.644;2023-04-15T12:01:06;6.73;;;4.83;;
16075;SDS011;8142;48.242;11.644;2023-04-15T12:03:36;7.70;;;4.70;;
16075;SDS011;8142;48.242;11.644;2023-04-15T12:06:12;8.17;;;4.60;;
16075;SDS011;8142;48.242;11.644;2023-04-15T12:13:52;7.63;;;5.03;;
16075;SDS011;8142;48.242;11.644;2023-04-15T12:16:21;10.33;;;5.50;;
16075;SDS011;8142;48.242;11.644;2023-04-15T12:18:52;9.90;;;5.20;;
16075;SDS011;8142;48.242;11.644;2023-04-15T12:21:24;10.83;;;5.60;;
16075;SDS011;8142;48.242;11.644;2023-04-15T12:23:54;7.43;;;4.90;;
16075;SDS011;8142;48.242;11.644;2023-04-15T12:26:28;5.00;;;4.50;;
16075;SDS011;8142;48.242;11.644;2023-04-15T12:29:13;6.83;;;4.93;;
16075;SDS011;8142;48.242;11.644;2023-04-15T12:31:47;8.77;;;4.80;;
16075;SDS011;8142;48.242;11.644;2023-04-15T12:34:23;6.87;;;5.20;;
16075;SDS011;8142;48.242;11.644;2023-04-15T12:36:52;6.50;;;4.60;;
16075;SDS011;8142;48.242;11.644;2023-04-15T12:39:25;7.73;;;4.93;;
16075;SDS011;8142;48.242;11.644;2023-04-15T12:41:52;6.50;;;4.60;;
16075;SDS011;8142;48.242;11.644;2023-04-15T12:44:20;9.23;;;5.43;;
16075;SDS011;8142;48.242;11.644;2023-04-15T12:46:48;7.53;;;4.67;;
16075;SDS011;8142;48.242;11.644;2023-04-15T12:49:16;8.10;;;4.40;;
16075;SDS011;8142;48.242;11.644;2023-04-15T12:51:46;5.97;;;4.37;;
16075;SDS011;8142;48.242;11.644;2023-04-15T12:54:17;7.93;;;4.27;;
16075;SDS011;8142;48.242;11.644;2023-04-15T12:56:43;7.80;;;4.93;;
16075;SDS011;8142;48.242;11.644;2023-04-15T12:59:10;7.93;;;5.07;;
16075;SDS011;8142;48.242;11.644;2023-04-15T13:01:37;7.60;;;5.30;;
16075;SDS011;8142;48.242;11.644;2023-04-15T13:04:04;7.37;;;5.57;;
16075;SDS011;8142;48.242;11.644;2023-04-15T13:06:30;9.40;;;5.70;;
16075;SDS011;8142;48.242;11.644;2023-04-15T13:08:59;8.20;;;5.60;;
16075;SDS011;8142;48.242;11.644;2023-04-15T13:11:26;9.87;;;5.73;;
16075;SDS011;8142;48.242;11.644;2023-04-15T13:13:55;8.30;;;5.37;;
16075;SDS011;8142;48.242;11.644;2023-04-15T13:16:24;7.17;;;5.03;;
16075;SDS011;8142;48.242;11.644;2023-04-15T13:18:50;9.07;;;5.00;;
16075;SDS011;8142;48.242;11.644;2023-04-15T13:21:16;7.40;;;5.17;;
16075;SDS011;8142;48.242;11.644;2023-04-15T13:23:42;7.37;;;5.33;;
16075;SDS011;8142;48.242;11.644;2023-04-15T13:26:08;8.67;;;5.30;;
16075;SDS011;8142;48.242;11.644;2023-04-15T13:28:34;6.33;;;5.20;;
16075;SDS011;8142;48.242;11.644;2023-04-15T13:31:00;8.77;;;5.57;;
16075;SDS011;8142;48.242;11.644;2023-04-15T13:33:26;7.37;;;4.70;;
16075;SDS011;8142;48.242;11.644;2023-04-15T13:35:52;7.10;;;5.40;;
16075;SDS011;8142;48.242;11.644;2023-04-15T13:38:18;6.83;;;4.67;;
16075;SDS011;8142;48.242;11.644;2023-04-15T13:40:44;5.83;;;5.00;;
16075;SDS011;8142;48.242;11.644;2023-04-15T13:43:10;6.63;;;5.30;;
16075;SDS011;8142;48.242;11.644;2023-04-15T13:45:36;5.90;;;4.93;;
16075;SDS011;8142;48.242;11.644;2023-04-15T13:48:03;8.70;;;5.27;;
16075;SDS011;8142;48.242;11.644;2023-04-15T13:50:29;7.43;;;4.67;;
16075;SDS011;8142;48.242;11.644;2023-04-15T13:52:54;5.87;;;4.90;;
16075;SDS011;8142;48.242;11.644;2023-04-15T13:55:20;6.57;;;4.70;;
16075;SDS011;8142;48.242;11.644;2023-04-15T13:57:46;6.20;;;4.40;;
16075;SDS011;8142;48.242;11.644;2023-04-15T14:00:12;7.67;;;4.57;;
16075;SDS011;8142;48.242;11.644;2023-04-15T14:02:39;4.30;;;3.90;;
16075;SDS011;8142;48.242;11.644;2023-04-15T14:05:05;6.80;;;3.90;;
16075;SDS011;8142;48.242;11.644;2023-04-15T14:07:32;6.73;;;4.13;;
16075;SDS011;8142;48.242;11.644;2023-04-15T14:09:58;6.13;;;4.00;;
16075;SDS011;8142;48.242;11.644;2023-04-15T14:12:25;5.43;;;4.27;;
16075;SDS011;8142;48.242;11.644;2023-04-15T14:14:50;7.07;;;4.20;;
16075;SDS011;8142;48.242;11.644;2023-04-15T14:17:16;6.20;;;4.20;;
16075;SDS011;8142;48.242;11.644;2023-04-15T14:19:42;7.23;;;4.13;;
16075;SDS011;8142;48.242;11.644;2023-04-15T14:22:08;7.00;;;4.10;;
16075;SDS011;8142;48.242;11.644;2023-04-15T14:24:34;6.43;;;4.37;;
16075;SDS011;8142;48.242;11.644;2023-04-15T14:27:00;6.00;;;4.00;;
16075;SDS011;8142;48.242;11.644;2023-04-15T14:29:26;5.07;;;4.13;;
16075;SDS011;8142;48.242;11.644;2023-04-15T14:31:52;10.07;;;4.30;;
16075;SDS011;8142;48.242;11.644;2023-04-15T14:34:18;4.60;;;4.00;;
16075;SDS011;8142;48.242;11.644;2023-04-15T14:36:46;5.33;;;3.37;;
16075;SDS011;8142;48.242;11.644;2023-04-15T14:39:12;4.47;;;3.47;;
16075;SDS011;8142;48.242;11.644;2023-04-15T14:41:38;4.70;;;3.20;;
16075;SDS011;8142;48.242;11.644;2023-04-15T14:44:04;5.30;;;3.40;;
16075;SDS011;8142;48.242;11.644;2023-04-15T14:46:30;5.03;;;3.47;;
16075;SDS011;8142;48.242;11.644;2023-04-15T14:48:56;4.63;;;3.30;;
16075;SDS011;8142;48.242;11.644;2023-04-15T14:51:22;3.80;;;3.30;;
16075;SDS011;8142;48.242;11.644;2023-04-15T14:53:48;3.80;;;3.27;;
16075;SDS011;8142;48.242;11.644;2023-04-15T14:56:13;4.33;;;3.13;;
16075;SDS011;8142;48.242;11.644;2023-04-15T14:58:39;3.87;;;3.50;;
16075;SDS011;8142;48.242;11.644;2023-04-15T15:01:05;4.73;;;3.50;;
16075;SDS011;8142;48.242;11.644;2023-04-15T15:03:31;3.90;;;3.50;;
16075;SDS011;8142;48.242;11.644;2023-04-15T15:05:58;4.90;;;3.60;;
16075;SDS011;8142;48.242;11.644;2023-04-15T15:08:24;4.40;;;3.50;;